Home   Weather   Sweden   Halmstad   Past weeks
Flag for Sweden

Past Weather in Halmstad, Sweden — Yesterday and Last 2 Weeks

Currently: 23 °F. Cold. (Weather station: Halmstad Swedish Air Force Base, Sweden). See more current weather

Past Weather in Halmstad — Graph

°F

Halmstad Temperature Yesterday

Maximum temperature yesterday: 37 °F (at 1:50 pm)
Minimum temperature yesterday: 25 °F (at 11:50 pm)
Average temperature yesterday: 33 °F

High & Low Weather Summary for the Past Weeks

 TemperatureHumidityPressure
High66 °F (Apr 9, 3:20 pm)100% (Apr 10, 12:20 am)30.36 "Hg (Apr 10, 12:20 am)
Low23 °F (Apr 23, 1:50 am)29% (Apr 21, 11:50 am)29.42 "Hg (Apr 16, 1:50 am)
Average44 °F77%29.93 "Hg
* Reported Apr 8 2:20 am — Apr 23 2:20 am, Halmstad. Weather by CustomWeather, © 2024

Note: Actual official high and low records may vary slightly from our data, if they occured in-between our weather recording intervals... More about our weather records

Halmstad Weather History for the Previous 24 Hours

Scroll right to see more
 ConditionsComfort  
Time TempWeatherWind HumidityBarometerVisibility
2:20 am
Tue, Apr 23
23 °FCold.2 mph86%30.12 "HgN/A
1:50 am23 °FCold.2 mph86%30.12 "HgN/A
1:20 am25 °FCold.3 mph86%30.12 "HgN/A
12:50 am25 °FCold.2 mph93%30.15 "HgN/A
12:20 am25 °FCold.2 mph93%30.15 "HgN/A
11:50 pm
Mon, Apr 22
25 °FCold.2 mph86%30.15 "HgN/A
11:20 pm28 °FChilly.2 mph80%30.18 "HgN/A
10:20 pm32 °FChilly.2 mph69%30.18 "HgN/A
9:50 pm34 °FChilly.3 mph65%30.18 "HgN/A
9:20 pm36 °FPassing clouds.3 mph60%30.18 "HgN/A
8:50 pm36 °FOvercast.3 mph60%30.18 "HgN/A
8:20 pm37 °FOvercast.5 mph56%30.21 "HgN/A
7:50 pm37 °FOvercast.6 mph52%30.21 "HgN/A
7:20 pm37 °FOvercast.1 mph56%30.21 "HgN/A
6:50 pm37 °FSunny.No wind52%30.21 "Hg10 mi
6:20 pm37 °FBroken clouds.No wind52%30.21 "HgN/A
5:50 pm37 °FPartly sunny.3 mph52%30.21 "HgN/A
5:20 pm37 °FPartly sunny.5 mph52%30.21 "HgN/A
4:50 pm37 °FPartly sunny.5 mph56%30.24 "HgN/A
4:20 pm37 °FPartly sunny.6 mph56%30.24 "HgN/A
2:50 pm36 °FPartly sunny.8 mph60%30.24 "HgN/A
2:20 pm37 °FPartly sunny.10 mph56%30.24 "HgN/A
1:50 pm37 °FPartly sunny.10 mph56%30.27 "HgN/A
1:20 pm36 °FBroken clouds.10 mph60%30.27 "HgN/A
12:50 pm36 °FPartly sunny.10 mph56%30.27 "HgN/A
12:20 pm36 °FPartly sunny.10 mph60%30.27 "HgN/A
11:50 am34 °FBroken clouds.7 mph60%30.30 "HgN/A
11:20 am34 °FPartly sunny.9 mph65%30.30 "HgN/A
10:50 am34 °FOvercast.9 mph60%30.30 "HgN/A
10:20 am34 °FOvercast.10 mph65%30.30 "HgN/A
9:20 am34 °FOvercast.10 mph65%30.30 "HgN/A
8:50 am32 °FOvercast.10 mph69%30.30 "HgN/A
8:20 am32 °FOvercast.9 mph75%30.30 "HgN/A
7:50 am32 °FOvercast.8 mph69%30.30 "HgN/A
7:20 am28 °FPartly sunny.7 mph80%30.30 "HgN/A
6:50 am27 °FPassing clouds.7 mph80%30.33 "HgN/A
6:20 am28 °FPassing clouds.7 mph80%30.33 "HgN/A
5:50 am28 °FPartly sunny.7 mph80%30.33 "HgN/A
5:20 am28 °FPassing clouds.8 mph80%30.33 "HgN/A
4:50 am28 °FPassing clouds.8 mph80%30.33 "HgN/A
4:20 am28 °FPassing clouds.7 mph80%30.36 "HgN/A
3:20 am27 °FChilly.6 mph80%30.36 "HgN/A
Weather by CustomWeather, © 2024

See weather overview